sensor_id;sensor_type;location;lat;lon;timestamp;temperature;humidity
55313;DHT22;46892;45.668;11.756;2022-09-23T00:00:45;13.30;76.50
55313;DHT22;46892;45.668;11.756;2022-09-23T00:03:11;13.40;76.60
55313;DHT22;46892;45.668;11.756;2022-09-23T00:05:37;13.50;76.60
55313;DHT22;46892;45.668;11.756;2022-09-23T00:08:05;13.50;76.80
55313;DHT22;46892;45.668;11.756;2022-09-23T00:10:31;13.40;76.60
55313;DHT22;46892;45.668;11.756;2022-09-23T00:12:57;13.40;77.20
55313;DHT22;46892;45.668;11.756;2022-09-23T00:15:24;13.40;76.80
55313;DHT22;46892;45.668;11.756;2022-09-23T00:17:53;13.50;75.20
55313;DHT22;46892;45.668;11.756;2022-09-23T00:20:19;13.50;76.00
55313;DHT22;46892;45.668;11.756;2022-09-23T00:22:45;13.50;76.70
55313;DHT22;46892;45.668;11.756;2022-09-23T00:25:11;13.50;76.20
55313;DHT22;46892;45.668;11.756;2022-09-23T00:27:37;13.40;76.00
55313;DHT22;46892;45.668;11.756;2022-09-23T00:30:06;13.40;76.30
55313;DHT22;46892;45.668;11.756;2022-09-23T00:32:33;13.40;76.70
55313;DHT22;46892;45.668;11.756;2022-09-23T00:34:59;13.50;76.90
55313;DHT22;46892;45.668;11.756;2022-09-23T00:37:27;13.50;76.60
55313;DHT22;46892;45.668;11.756;2022-09-23T00:39:53;13.70;76.30
55313;DHT22;46892;45.668;11.756;2022-09-23T00:42:21;13.70;76.00
55313;DHT22;46892;45.668;11.756;2022-09-23T00:47:32;13.70;75.90
55313;DHT22;46892;45.668;11.756;2022-09-23T00:50:06;13.60;76.20
55313;DHT22;46892;45.668;11.756;2022-09-23T00:52:33;13.50;76.80
55313;DHT22;46892;45.668;11.756;2022-09-23T00:55:04;13.60;76.70
55313;DHT22;46892;45.668;11.756;2022-09-23T00:57:30;13.70;76.50
55313;DHT22;46892;45.668;11.756;2022-09-23T00:59:56;13.80;76.40
55313;DHT22;46892;45.668;11.756;2022-09-23T01:02:22;13.80;76.30
55313;DHT22;46892;45.668;11.756;2022-09-23T01:04:49;13.80;75.60
55313;DHT22;46892;45.668;11.756;2022-09-23T01:07:15;13.80;76.60
55313;DHT22;46892;45.668;11.756;2022-09-23T01:09:42;13.70;76.20
55313;DHT22;46892;45.668;11.756;2022-09-23T01:12:34;13.50;76.20
55313;DHT22;46892;45.668;11.756;2022-09-23T01:15:13;13.40;76.40
55313;DHT22;46892;45.668;11.756;2022-09-23T01:32:14;13.40;78.30
55313;DHT22;46892;45.668;11.756;2022-09-23T01:37:28;13.50;77.70
55313;DHT22;46892;45.668;11.756;2022-09-23T01:40:08;13.50;77.80
55313;DHT22;46892;45.668;11.756;2022-09-23T01:42:42;13.50;77.50
55313;DHT22;46892;45.668;11.756;2022-09-23T01:45:21;13.50;77.00
55313;DHT22;46892;45.668;11.756;2022-09-23T01:48:35;13.50;77.00
55313;DHT22;46892;45.668;11.756;2022-09-23T01:50:55;13.50;77.20
55313;DHT22;46892;45.668;11.756;2022-09-23T01:53:39;13.60;77.90
55313;DHT22;46892;45.668;11.756;2022-09-23T02:01:41;13.50;78.30
55313;DHT22;46892;45.668;11.756;2022-09-23T02:04:15;13.50;78.20
55313;DHT22;46892;45.668;11.756;2022-09-23T02:06:55;13.50;78.70
55313;DHT22;46892;45.668;11.756;2022-09-23T02:09:28;13.30;79.20
55313;DHT22;46892;45.668;11.756;2022-09-23T02:12:00;13.20;79.90
55313;DHT22;46892;45.668;11.756;2022-09-23T02:15:02;13.10;80.00
55313;DHT22;46892;45.668;11.756;2022-09-23T02:17:55;13.00;80.10
55313;DHT22;46892;45.668;11.756;2022-09-23T02:20:29;13.20;80.80
55313;DHT22;46892;45.668;11.756;2022-09-23T02:23:22;13.40;80.50
55313;DHT22;46892;45.668;11.756;2022-09-23T02:32:19;13.70;79.10
55313;DHT22;46892;45.668;11.756;2022-09-23T02:45:18;13.30;77.40
55313;DHT22;46892;45.668;11.756;2022-09-23T02:47:48;13.40;77.40
55313;DHT22;46892;45.668;11.756;2022-09-23T02:50:17;13.50;77.40
55313;DHT22;46892;45.668;11.756;2022-09-23T02:52:45;13.70;78.10
55313;DHT22;46892;45.668;11.756;2022-09-23T02:55:11;13.80;78.10
55313;DHT22;46892;45.668;11.756;2022-09-23T02:57:40;13.70;77.80
55313;DHT22;46892;45.668;11.756;2022-09-23T03:00:06;13.70;77.90
55313;DHT22;46892;45.668;11.756;2022-09-23T03:05:10;13.40;77.70
55313;DHT22;46892;45.668;11.756;2022-09-23T03:13:23;13.30;78.80
55313;DHT22;46892;45.668;11.756;2022-09-23T03:16:42;13.30;78.30
55313;DHT22;46892;45.668;11.756;2022-09-23T03:21:48;13.40;78.80
55313;DHT22;46892;45.668;11.756;2022-09-23T03:24:17;13.50;78.50
55313;DHT22;46892;45.668;11.756;2022-09-23T03:26:45;13.50;78.40
55313;DHT22;46892;45.668;11.756;2022-09-23T03:29:13;13.60;77.70
55313;DHT22;46892;45.668;11.756;2022-09-23T03:31:40;13.60;78.90
55313;DHT22;46892;45.668;11.756;2022-09-23T03:34:19;13.50;78.40
55313;DHT22;46892;45.668;11.756;2022-09-23T03:36:53;13.60;78.20
55313;DHT22;46892;45.668;11.756;2022-09-23T03:39:34;13.50;77.30
55313;DHT22;46892;45.668;11.756;2022-09-23T03:42:08;13.70;77.30
55313;DHT22;46892;45.668;11.756;2022-09-23T03:44:42;13.70;76.40
55313;DHT22;46892;45.668;11.756;2022-09-23T03:47:09;13.80;75.80
55313;DHT22;46892;45.668;11.756;2022-09-23T03:49:37;13.70;75.80
55313;DHT22;46892;45.668;11.756;2022-09-23T03:52:05;13.70;75.60
55313;DHT22;46892;45.668;11.756;2022-09-23T03:54:31;13.60;75.70
55313;DHT22;46892;45.668;11.756;2022-09-23T03:56:57;13.50;76.30
55313;DHT22;46892;45.668;11.756;2022-09-23T03:59:26;13.50;76.50
55313;DHT22;46892;45.668;11.756;2022-09-23T04:01:52;13.40;76.80
55313;DHT22;46892;45.668;11.756;2022-09-23T04:04:18;13.30;77.00
55313;DHT22;46892;45.668;11.756;2022-09-23T04:06:44;13.40;77.70
55313;DHT22;46892;45.668;11.756;2022-09-23T04:09:10;13.30;77.10
55313;DHT22;46892;45.668;11.756;2022-09-23T04:11:36;13.30;78.10
55313;DHT22;46892;45.668;11.756;2022-09-23T04:14:02;13.40;77.50
55313;DHT22;46892;45.668;11.756;2022-09-23T04:16:28;13.20;77.30
55313;DHT22;46892;45.668;11.756;2022-09-23T04:18:54;13.10;77.30
55313;DHT22;46892;45.668;11.756;2022-09-23T04:21:20;13.00;78.10
55313;DHT22;46892;45.668;11.756;2022-09-23T04:23:46;13.00;77.90
55313;DHT22;46892;45.668;11.756;2022-09-23T04:26:12;13.00;77.60
55313;DHT22;46892;45.668;11.756;2022-09-23T04:28:38;13.10;78.30
55313;DHT22;46892;45.668;11.756;2022-09-23T04:31:05;13.10;77.60
55313;DHT22;46892;45.668;11.756;2022-09-23T04:33:31;13.10;77.50
55313;DHT22;46892;45.668;11.756;2022-09-23T04:35:57;13.00;78.50
55313;DHT22;46892;45.668;11.756;2022-09-23T04:38:23;12.90;78.30
55313;DHT22;46892;45.668;11.756;2022-09-23T04:40:49;12.90;78.30
55313;DHT22;46892;45.668;11.756;2022-09-23T04:43:15;12.80;78.80
55313;DHT22;46892;45.668;11.756;2022-09-23T04:45:44;12.90;79.20
55313;DHT22;46892;45.668;11.756;2022-09-23T04:48:10;12.90;78.50
55313;DHT22;46892;45.668;11.756;2022-09-23T04:50:38;12.90;78.20
55313;DHT22;46892;45.668;11.756;2022-09-23T04:53:04;12.90;78.00
55313;DHT22;46892;45.668;11.756;2022-09-23T04:55:30;12.80;78.10
55313;DHT22;46892;45.668;11.756;2022-09-23T04:57:56;12.70;78.30
55313;DHT22;46892;45.668;11.756;2022-09-23T05:00:22;12.70;79.00
55313;DHT22;46892;45.668;11.756;2022-09-23T05:02:49;12.70;78.70
55313;DHT22;46892;45.668;11.756;2022-09-23T05:05:16;12.80;77.90
55313;DHT22;46892;45.668;11.756;2022-09-23T05:07:46;12.80;78.00
55313;DHT22;46892;45.668;11.756;2022-09-23T05:10:13;12.80;78.10
55313;DHT22;46892;45.668;11.756;2022-09-23T05:12:39;12.70;78.60
55313;DHT22;46892;45.668;11.756;2022-09-23T05:15:04;12.60;78.90
55313;DHT22;46892;45.668;11.756;2022-09-23T05:17:31;12.50;79.20
55313;DHT22;46892;45.668;11.756;2022-09-23T05:19:58;12.40;79.40
55313;DHT22;46892;45.668;11.756;2022-09-23T05:22:24;12.50;79.30
55313;DHT22;46892;45.668;11.756;2022-09-23T05:24:53;12.60;80.10
55313;DHT22;46892;45.668;11.756;2022-09-23T05:27:19;12.80;79.10
55313;DHT22;46892;45.668;11.756;2022-09-23T05:29:46;12.90;78.40
55313;DHT22;46892;45.668;11.756;2022-09-23T05:32:12;13.00;77.90
55313;DHT22;46892;45.668;11.756;2022-09-23T05:34:39;13.00;77.70
55313;DHT22;46892;45.668;11.756;2022-09-23T05:37:05;13.00;78.00
55313;DHT22;46892;45.668;11.756;2022-09-23T05:39:30;13.00;77.80
55313;DHT22;46892;45.668;11.756;2022-09-23T05:41:56;13.00;77.50
55313;DHT22;46892;45.668;11.756;2022-09-23T05:44:24;13.10;77.30
55313;DHT22;46892;45.668;11.756;2022-09-23T05:46:50;13.10;78.10
55313;DHT22;46892;45.668;11.756;2022-09-23T05:49:16;13.10;78.90
55313;DHT22;46892;45.668;11.756;2022-09-23T05:51:41;13.20;78.10
55313;DHT22;46892;45.668;11.756;2022-09-23T05:54:07;13.20;77.90
55313;DHT22;46892;45.668;11.756;2022-09-23T05:56:33;13.20;77.60
55313;DHT22;46892;45.668;11.756;2022-09-23T05:59:00;13.20;79.00
55313;DHT22;46892;45.668;11.756;2022-09-23T06:01:28;13.20;79.20
55313;DHT22;46892;45.668;11.756;2022-09-23T06:03:57;13.20;79.40
55313;DHT22;46892;45.668;11.756;2022-09-23T06:06:29;13.30;79.20
55313;DHT22;46892;45.668;11.756;2022-09-23T06:08:56;13.50;79.60
55313;DHT22;46892;45.668;11.756;2022-09-23T06:11:22;13.70;78.30
55313;DHT22;46892;45.668;11.756;2022-09-23T06:13:48;13.80;77.90
55313;DHT22;46892;45.668;11.756;2022-09-23T06:16:18;14.00;77.50
55313;DHT22;46892;45.668;11.756;2022-09-23T06:18:44;14.10;77.20
55313;DHT22;46892;45.668;11.756;2022-09-23T06:21:15;14.30;77.30
55313;DHT22;46892;45.668;11.756;2022-09-23T06:23:42;14.50;76.90
55313;DHT22;46892;45.668;11.756;2022-09-23T06:26:09;14.80;75.60
55313;DHT22;46892;45.668;11.756;2022-09-23T06:28:37;15.00;75.40
55313;DHT22;46892;45.668;11.756;2022-09-23T06:31:14;15.20;75.70
55313;DHT22;46892;45.668;11.756;2022-09-23T06:33:41;15.30;74.60
55313;DHT22;46892;45.668;11.756;2022-09-23T06:36:07;15.30;74.30
55313;DHT22;46892;45.668;11.756;2022-09-23T06:38:36;15.30;73.60
55313;DHT22;46892;45.668;11.756;2022-09-23T06:41:02;15.30;72.80
55313;DHT22;46892;45.668;11.756;2022-09-23T06:43:28;15.20;73.30
55313;DHT22;46892;45.668;11.756;2022-09-23T06:45:56;15.20;73.30
55313;DHT22;46892;45.668;11.756;2022-09-23T06:48:23;15.00;74.30
55313;DHT22;46892;45.668;11.756;2022-09-23T06:50:49;15.00;74.80
55313;DHT22;46892;45.668;11.756;2022-09-23T06:53:16;14.90;74.90
55313;DHT22;46892;45.668;11.756;2022-09-23T06:55:42;14.90;76.80
55313;DHT22;46892;45.668;11.756;2022-09-23T06:58:09;15.00;76.00
55313;DHT22;46892;45.668;11.756;2022-09-23T07:00:37;15.10;75.50
55313;DHT22;46892;45.668;11.756;2022-09-23T07:03:07;15.20;75.00
55313;DHT22;46892;45.668;11.756;2022-09-23T07:05:34;15.30;74.60
55313;DHT22;46892;45.668;11.756;2022-09-23T07:08:00;15.40;74.20
55313;DHT22;46892;45.668;11.756;2022-09-23T07:10:26;15.50;73.80
55313;DHT22;46892;45.668;11.756;2022-09-23T07:12:55;15.50;74.40
55313;DHT22;46892;45.668;11.756;2022-09-23T07:15:21;15.60;73.50
55313;DHT22;46892;45.668;11.756;2022-09-23T07:17:46;15.60;74.40
55313;DHT22;46892;45.668;11.756;2022-09-23T07:20:12;15.60;73.90
55313;DHT22;46892;45.668;11.756;2022-09-23T07:22:38;15.70;74.40
55313;DHT22;46892;45.668;11.756;2022-09-23T07:25:04;15.80;73.40
55313;DHT22;46892;45.668;11.756;2022-09-23T07:27:30;15.80;72.50
55313;DHT22;46892;45.668;11.756;2022-09-23T07:29:56;15.70;72.70
55313;DHT22;46892;45.668;11.756;2022-09-23T07:32:22;15.80;73.00
55313;DHT22;46892;45.668;11.756;2022-09-23T07:34:48;15.80;71.20
55313;DHT22;46892;45.668;11.756;2022-09-23T07:37:15;15.70;71.60
55313;DHT22;46892;45.668;11.756;2022-09-23T07:39:42;15.70;71.90
55313;DHT22;46892;45.668;11.756;2022-09-23T07:42:08;15.70;71.60
55313;DHT22;46892;45.668;11.756;2022-09-23T07:44:34;15.70;71.80
55313;DHT22;46892;45.668;11.756;2022-09-23T07:47:00;15.70;75.30
55313;DHT22;46892;45.668;11.756;2022-09-23T07:49:26;15.80;74.90
55313;DHT22;46892;45.668;11.756;2022-09-23T07:51:52;15.90;72.80
55313;DHT22;46892;45.668;11.756;2022-09-23T07:54:18;16.00;73.20
55313;DHT22;46892;45.668;11.756;2022-09-23T07:56:45;16.20;75.10
55313;DHT22;46892;45.668;11.756;2022-09-23T07:59:13;16.50;71.20
55313;DHT22;46892;45.668;11.756;2022-09-23T08:01:42;16.50;67.90
55313;DHT22;46892;45.668;11.756;2022-09-23T08:04:17;16.70;71.50
55313;DHT22;46892;45.668;11.756;2022-09-23T08:06:51;17.00;71.00
55313;DHT22;46892;45.668;11.756;2022-09-23T08:09:20;17.30;65.50
55313;DHT22;46892;45.668;11.756;2022-09-23T08:11:46;17.60;61.00
55313;DHT22;46892;45.668;11.756;2022-09-23T08:14:14;17.80;64.00
55313;DHT22;46892;45.668;11.756;2022-09-23T08:16:40;18.20;62.00
55313;DHT22;46892;45.668;11.756;2022-09-23T08:19:07;18.30;59.20
55313;DHT22;46892;45.668;11.756;2022-09-23T08:21:33;18.40;57.80
55313;DHT22;46892;45.668;11.756;2022-09-23T08:23:59;18.30;58.10
55313;DHT22;46892;45.668;11.756;2022-09-23T08:26:25;18.20;60.70
55313;DHT22;46892;45.668;11.756;2022-09-23T08:28:51;18.30;61.40
55313;DHT22;46892;45.668;11.756;2022-09-23T08:31:21;18.30;57.50
55313;DHT22;46892;45.668;11.756;2022-09-23T08:33:52;18.20;60.10
55313;DHT22;46892;45.668;11.756;2022-09-23T08:36:18;18.30;58.00
55313;DHT22;46892;45.668;11.756;2022-09-23T08:38:44;18.40;60.20
55313;DHT22;46892;45.668;11.756;2022-09-23T08:43:53;18.30;61.10
55313;DHT22;46892;45.668;11.756;2022-09-23T08:46:29;18.40;57.20
55313;DHT22;46892;45.668;11.756;2022-09-23T08:48:59;18.50;57.60
55313;DHT22;46892;45.668;11.756;2022-09-23T08:51:35;18.70;57.90
55313;DHT22;46892;45.668;11.756;2022-09-23T08:54:04;18.80;55.10
55313;DHT22;46892;45.668;11.756;2022-09-23T08:56:30;18.80;56.40
55313;DHT22;46892;45.668;11.756;2022-09-23T08:59:24;18.70;53.20
55313;DHT22;46892;45.668;11.756;2022-09-23T09:01:58;18.70;57.80
55313;DHT22;46892;45.668;11.756;2022-09-23T09:04:26;18.80;57.20
55313;DHT22;46892;45.668;11.756;2022-09-23T09:07:01;18.80;56.90
55313;DHT22;46892;45.668;11.756;2022-09-23T09:12:29;18.90;52.30
55313;DHT22;46892;45.668;11.756;2022-09-23T09:15:11;18.80;53.60
55313;DHT22;46892;45.668;11.756;2022-09-23T09:17:43;18.80;51.90
55313;DHT22;46892;45.668;11.756;2022-09-23T09:20:28;18.60;54.60
55313;DHT22;46892;45.668;11.756;2022-09-23T09:22:58;18.60;55.90
55313;DHT22;46892;45.668;11.756;2022-09-23T09:28:41;18.70;56.90
55313;DHT22;46892;45.668;11.756;2022-09-23T09:31:23;18.80;52.40
55313;DHT22;46892;45.668;11.756;2022-09-23T09:37:03;18.80;49.90
55313;DHT22;46892;45.668;11.756;2022-09-23T09:39:31;18.70;54.70
55313;DHT22;46892;45.668;11.756;2022-09-23T09:41:57;18.60;54.80
55313;DHT22;46892;45.668;11.756;2022-09-23T09:52:22;18.80;55.70
55313;DHT22;46892;45.668;11.756;2022-09-23T09:54:50;18.90;49.60
55313;DHT22;46892;45.668;11.756;2022-09-23T09:57:30;19.00;53.00
55313;DHT22;46892;45.668;11.756;2022-09-23T09:59:57;19.10;51.50
55313;DHT22;46892;45.668;11.756;2022-09-23T10:02:41;19.20;47.90
55313;DHT22;46892;45.668;11.756;2022-09-23T10:05:32;19.20;48.90
55313;DHT22;46892;45.668;11.756;2022-09-23T10:08:31;19.00;53.30
55313;DHT22;46892;45.668;11.756;2022-09-23T10:13:23;19.00;51.80
55313;DHT22;46892;45.668;11.756;2022-09-23T10:15:52;19.20;47.90
55313;DHT22;46892;45.668;11.756;2022-09-23T10:18:36;19.20;49.30
55313;DHT22;46892;45.668;11.756;2022-09-23T10:21:11;19.10;51.50
55313;DHT22;46892;45.668;11.756;2022-09-23T10:23:43;19.20;52.70
55313;DHT22;46892;45.668;11.756;2022-09-23T10:26:10;19.20;51.80
55313;DHT22;46892;45.668;11.756;2022-09-23T10:28:49;19.20;53.90
55313;DHT22;46892;45.668;11.756;2022-09-23T10:31:28;19.30;52.70
55313;DHT22;46892;45.668;11.756;2022-09-23T10:33:58;19.40;53.10
55313;DHT22;46892;45.668;11.756;2022-09-23T10:36:26;19.50;51.70
55313;DHT22;46892;45.668;11.756;2022-09-23T10:38:58;19.50;52.30
55313;DHT22;46892;45.668;11.756;2022-09-23T10:42:12;19.60;52.70
55313;DHT22;46892;45.668;11.756;2022-09-23T10:50:51;19.60;51.70
55313;DHT22;46892;45.668;11.756;2022-09-23T10:53:30;19.60;50.90
55313;DHT22;46892;45.668;11.756;2022-09-23T10:56:18;19.70;47.50
55313;DHT22;46892;45.668;11.756;2022-09-23T11:06:32;19.80;47.00
55313;DHT22;46892;45.668;11.756;2022-09-23T11:12:03;19.90;45.80
55313;DHT22;46892;45.668;11.756;2022-09-23T11:20:25;20.00;50.20
55313;DHT22;46892;45.668;11.756;2022-09-23T11:23:17;20.00;49.90
55313;DHT22;46892;45.668;11.756;2022-09-23T11:34:28;20.20;50.40
55313;DHT22;46892;45.668;11.756;2022-09-23T11:37:28;20.20;49.80
55313;DHT22;46892;45.668;11.756;2022-09-23T11:40:21;20.00;48.10
55313;DHT22;46892;45.668;11.756;2022-09-23T11:45:48;19.90;48.10
55313;DHT22;46892;45.668;11.756;2022-09-23T11:48:29;20.00;51.70
55313;DHT22;46892;45.668;11.756;2022-09-23T11:51:00;20.00;49.80
55313;DHT22;46892;45.668;11.756;2022-09-23T11:53:57;20.00;49.80
55313;DHT22;46892;45.668;11.756;2022-09-23T11:56:29;20.00;50.30
55313;DHT22;46892;45.668;11.756;2022-09-23T12:01:33;20.20;49.70
55313;DHT22;46892;45.668;11.756;2022-09-23T12:04:29;20.20;48.40
55313;DHT22;46892;45.668;11.756;2022-09-23T12:07:16;20.30;47.60
55313;DHT22;46892;45.668;11.756;2022-09-23T12:10:06;20.50;47.10
55313;DHT22;46892;45.668;11.756;2022-09-23T12:12:45;20.50;48.50
55313;DHT22;46892;45.668;11.756;2022-09-23T12:18:02;20.60;48.90
55313;DHT22;46892;45.668;11.756;2022-09-23T12:26:06;20.70;48.10
55313;DHT22;46892;45.668;11.756;2022-09-23T12:28:40;20.70;49.70
55313;DHT22;46892;45.668;11.756;2022-09-23T12:31:18;20.60;45.40
55313;DHT22;46892;45.668;11.756;2022-09-23T12:34:18;20.60;49.60
55313;DHT22;46892;45.668;11.756;2022-09-23T12:36:45;20.60;48.60
55313;DHT22;46892;45.668;11.756;2022-09-23T12:39:26;20.60;46.90
55313;DHT22;46892;45.668;11.756;2022-09-23T12:41:59;20.60;47.10
55313;DHT22;46892;45.668;11.756;2022-09-23T12:44:36;20.60;47.70
55313;DHT22;46892;45.668;11.756;2022-09-23T12:49:46;20.80;48.90
55313;DHT22;46892;45.668;11.756;2022-09-23T12:54:55;21.00;48.70
55313;DHT22;46892;45.668;11.756;2022-09-23T13:07:58;21.30;44.90
55313;DHT22;46892;45.668;11.756;2022-09-23T13:10:33;21.40;42.80
55313;DHT22;46892;45.668;11.756;2022-09-23T13:13:00;21.30;45.30
55313;DHT22;46892;45.668;11.756;2022-09-23T13:15:30;21.40;42.30
55313;DHT22;46892;45.668;11.756;2022-09-23T13:20:48;21.40;43.90
55313;DHT22;46892;45.668;11.756;2022-09-23T13:23:21;21.50;43.50
55313;DHT22;46892;45.668;11.756;2022-09-23T13:25:49;21.50;44.40
55313;DHT22;46892;45.668;11.756;2022-09-23T13:28:40;21.60;43.20
55313;DHT22;46892;45.668;11.756;2022-09-23T13:31:15;21.50;45.50
55313;DHT22;46892;45.668;11.756;2022-09-23T13:36:12;21.60;45.60
55313;DHT22;46892;45.668;11.756;2022-09-23T13:38:39;21.60;44.30
55313;DHT22;46892;45.668;11.756;2022-09-23T13:41:23;21.60;43.20
55313;DHT22;46892;45.668;11.756;2022-09-23T13:43:53;21.60;41.90
55313;DHT22;46892;45.668;11.756;2022-09-23T13:46:25;21.60;41.20
55313;DHT22;46892;45.668;11.756;2022-09-23T13:48:52;21.50;42.80
55313;DHT22;46892;45.668;11.756;2022-09-23T13:51:31;21.50;42.00
55313;DHT22;46892;45.668;11.756;2022-09-23T13:53:59;21.30;44.80
55313;DHT22;46892;45.668;11.756;2022-09-23T13:56:27;21.30;45.20
55313;DHT22;46892;45.668;11.756;2022-09-23T13:59:03;21.20;45.40
55313;DHT22;46892;45.668;11.756;2022-09-23T14:01:35;21.20;44.50
55313;DHT22;46892;45.668;11.756;2022-09-23T14:04:01;21.10;42.20
55313;DHT22;46892;45.668;11.756;2022-09-23T14:06:29;21.10;42.30
55313;DHT22;46892;45.668;11.756;2022-09-23T14:08:56;20.90;42.10
55313;DHT22;46892;45.668;11.756;2022-09-23T14:11:29;20.80;42.80
55313;DHT22;46892;45.668;11.756;2022-09-23T14:13:56;20.80;44.00
55313;DHT22;46892;45.668;11.756;2022-09-23T14:16:24;20.80;46.40
55313;DHT22;46892;45.668;11.756;2022-09-23T14:18:55;20.90;45.80
55313;DHT22;46892;45.668;11.756;2022-09-23T14:21:38;21.00;44.90
55313;DHT22;46892;45.668;11.756;2022-09-23T14:26:53;21.20;45.40
55313;DHT22;46892;45.668;11.756;2022-09-23T14:29:23;21.20;45.10
55313;DHT22;46892;45.668;11.756;2022-09-23T14:31:54;21.30;42.70
55313;DHT22;46892;45.668;11.756;2022-09-23T14:40:31;21.20;42.40
55313;DHT22;46892;45.668;11.756;2022-09-23T14:45:44;20.80;43.80
55313;DHT22;46892;45.668;11.756;2022-09-23T14:48:29;20.90;44.00
55313;DHT22;46892;45.668;11.756;2022-09-23T14:50:56;20.90;45.00
55313;DHT22;46892;45.668;11.756;2022-09-23T14:53:40;20.90;44.40
55313;DHT22;46892;45.668;11.756;2022-09-23T15:09:32;20.70;44.90
55313;DHT22;46892;45.668;11.756;2022-09-23T15:12:26;20.70;44.90
55313;DHT22;46892;45.668;11.756;2022-09-23T15:14:53;20.60;46.20
55313;DHT22;46892;45.668;11.756;2022-09-23T15:19:56;20.60;44.80
55313;DHT22;46892;45.668;11.756;2022-09-23T15:22:26;20.70;44.80
55313;DHT22;46892;45.668;11.756;2022-09-23T15:24:53;20.50;46.40
55313;DHT22;46892;45.668;11.756;2022-09-23T15:27:29;20.50;46.00
55313;DHT22;46892;45.668;11.756;2022-09-23T15:30:11;20.30;46.40
55313;DHT22;46892;45.668;11.756;2022-09-23T15:32:40;20.30;47.30
55313;DHT22;46892;45.668;11.756;2022-09-23T15:35:11;20.30;47.90
55313;DHT22;46892;45.668;11.756;2022-09-23T15:37:39;20.20;47.80
55313;DHT22;46892;45.668;11.756;2022-09-23T15:40:04;20.20;48.70
55313;DHT22;46892;45.668;11.756;2022-09-23T15:42:33;20.10;48.70
55313;DHT22;46892;45.668;11.756;2022-09-23T15:44:59;20.00;48.40
55313;DHT22;46892;45.668;11.756;2022-09-23T15:47:25;19.90;48.70
55313;DHT22;46892;45.668;11.756;2022-09-23T15:49:50;19.80;48.60
55313;DHT22;46892;45.668;11.756;2022-09-23T15:52:16;19.80;49.90
55313;DHT22;46892;45.668;11.756;2022-09-23T15:54:43;19.80;51.20
55313;DHT22;46892;45.668;11.756;2022-09-23T15:57:09;19.80;52.70
55313;DHT22;46892;45.668;11.756;2022-09-23T15:59:34;19.80;53.30
55313;DHT22;46892;45.668;11.756;2022-09-23T16:02:04;19.70;54.90
55313;DHT22;46892;45.668;11.756;2022-09-23T16:04:32;19.70;56.20
55313;DHT22;46892;45.668;11.756;2022-09-23T16:06:57;19.70;55.50
55313;DHT22;46892;45.668;11.756;2022-09-23T16:09:23;19.60;54.20
55313;DHT22;46892;45.668;11.756;2022-09-23T16:11:49;19.60;54.10
55313;DHT22;46892;45.668;11.756;2022-09-23T16:14:16;19.60;54.40
55313;DHT22;46892;45.668;11.756;2022-09-23T16:16:43;19.60;54.80
55313;DHT22;46892;45.668;11.756;2022-09-23T16:19:12;19.50;55.20
55313;DHT22;46892;45.668;11.756;2022-09-23T16:21:38;19.50;54.60
55313;DHT22;46892;45.668;11.756;2022-09-23T16:24:16;19.50;53.90
55313;DHT22;46892;45.668;11.756;2022-09-23T16:26:43;19.40;54.40
55313;DHT22;46892;45.668;11.756;2022-09-23T16:29:09;19.30;54.80
55313;DHT22;46892;45.668;11.756;2022-09-23T16:31:36;19.30;54.20
55313;DHT22;46892;45.668;11.756;2022-09-23T16:34:03;19.30;55.30
55313;DHT22;46892;45.668;11.756;2022-09-23T16:36:34;19.30;55.10
55313;DHT22;46892;45.668;11.756;2022-09-23T16:39:05;19.20;55.60
55313;DHT22;46892;45.668;11.756;2022-09-23T16:41:32;19.20;55.50
55313;DHT22;46892;45.668;11.756;2022-09-23T16:43:59;19.10;55.20
55313;DHT22;46892;45.668;11.756;2022-09-23T16:46:25;19.00;55.80
55313;DHT22;46892;45.668;11.756;2022-09-23T16:48:52;18.90;55.70
55313;DHT22;46892;45.668;11.756;2022-09-23T16:51:24;18.80;55.40
55313;DHT22;46892;45.668;11.756;2022-09-23T16:53:51;18.80;56.30
55313;DHT22;46892;45.668;11.756;2022-09-23T16:56:19;18.80;56.20
55313;DHT22;46892;45.668;11.756;2022-09-23T16:58:48;18.70;56.00
55313;DHT22;46892;45.668;11.756;2022-09-23T17:01:20;18.60;56.00
55313;DHT22;46892;45.668;11.756;2022-09-23T17:04:05;18.60;56.30
55313;DHT22;46892;45.668;11.756;2022-09-23T17:06:32;18.40;56.00
55313;DHT22;46892;45.668;11.756;2022-09-23T17:08:57;18.30;55.80
55313;DHT22;46892;45.668;11.756;2022-09-23T17:11:23;18.30;55.20
55313;DHT22;46892;45.668;11.756;2022-09-23T17:13:49;18.30;55.20
55313;DHT22;46892;45.668;11.756;2022-09-23T17:16:29;18.20;55.40
55313;DHT22;46892;45.668;11.756;2022-09-23T17:18:55;18.20;56.80
55313;DHT22;46892;45.668;11.756;2022-09-23T17:21:23;18.10;57.00
55313;DHT22;46892;45.668;11.756;2022-09-23T17:24:08;18.00;57.20
55313;DHT22;46892;45.668;11.756;2022-09-23T17:26:34;17.90;59.00
55313;DHT22;46892;45.668;11.756;2022-09-23T17:29:00;17.80;59.10
55313;DHT22;46892;45.668;11.756;2022-09-23T17:31:26;17.70;59.90
55313;DHT22;46892;45.668;11.756;2022-09-23T17:33:52;17.70;59.40
55313;DHT22;46892;45.668;11.756;2022-09-23T17:36:18;17.60;60.30
55313;DHT22;46892;45.668;11.756;2022-09-23T17:38:46;17.50;60.90
55313;DHT22;46892;45.668;11.756;2022-09-23T17:41:12;17.40;60.20
55313;DHT22;46892;45.668;11.756;2022-09-23T17:43:39;17.30;60.70
55313;DHT22;46892;45.668;11.756;2022-09-23T17:46:10;17.30;61.80
55313;DHT22;46892;45.668;11.756;2022-09-23T17:48:38;17.20;62.20
55313;DHT22;46892;45.668;11.756;2022-09-23T17:51:11;17.20;61.30
55313;DHT22;46892;45.668;11.756;2022-09-23T17:53:39;17.20;60.30
55313;DHT22;46892;45.668;11.756;2022-09-23T17:58:42;17.00;61.10
55313;DHT22;46892;45.668;11.756;2022-09-23T18:01:19;16.90;61.10
55313;DHT22;46892;45.668;11.756;2022-09-23T18:03:45;16.80;60.50
55313;DHT22;46892;45.668;11.756;2022-09-23T18:06:16;16.80;61.10
55313;DHT22;46892;45.668;11.756;2022-09-23T18:08:44;16.80;62.30
55313;DHT22;46892;45.668;11.756;2022-09-23T18:13:57;16.80;62.60
55313;DHT22;46892;45.668;11.756;2022-09-23T18:16:26;16.70;63.70
55313;DHT22;46892;45.668;11.756;2022-09-23T18:18:57;16.60;64.30
55313;DHT22;46892;45.668;11.756;2022-09-23T18:21:26;16.50;64.50
55313;DHT22;46892;45.668;11.756;2022-09-23T18:23:52;16.40;64.00
55313;DHT22;46892;45.668;11.756;2022-09-23T18:26:21;16.30;64.20
55313;DHT22;46892;45.668;11.756;2022-09-23T18:28:48;16.10;66.30
55313;DHT22;46892;45.668;11.756;2022-09-23T18:31:15;15.80;65.00